createdAt,value
2023-06-29T00:01:08.853Z,-24212.12
2023-06-29T00:03:36.496Z,-24211.50
2023-06-29T00:08:16.083Z,-24210.13
2023-06-29T00:10:44.841Z,-24208.68
2023-06-29T00:13:12.605Z,-24207.84
2023-06-29T00:15:40.477Z,-24207.10
2023-06-29T00:18:10.490Z,-24206.60
2023-06-29T00:20:38.069Z,-24206.45
2023-06-29T00:23:05.690Z,-24205.86
2023-06-29T00:25:36.148Z,-24205.52
2023-06-29T00:28:03.961Z,-24204.99
2023-06-29T00:30:31.966Z,-24203.81
2023-06-29T00:32:59.646Z,-24202.57
2023-06-29T00:35:27.259Z,-24201.42
2023-06-29T00:37:55.082Z,-24200.43
2023-06-29T00:40:22.746Z,-24199.71
2023-06-29T00:42:50.519Z,-24198.38
2023-06-29T00:45:18.115Z,-24197.27
2023-06-29T00:47:45.792Z,-24196.40
2023-06-29T00:50:13.479Z,-24195.65
2023-06-29T00:52:41.477Z,-24194.81
2023-06-29T00:55:09.466Z,-24194.23
2023-06-29T00:57:39.571Z,-24193.61
2023-06-29T01:00:13.240Z,-24192.80
2023-06-29T01:02:41.972Z,-24192.06
2023-06-29T01:05:13.225Z,-24191.18
2023-06-29T01:08:06.531Z,-24189.54
2023-06-29T01:10:34.089Z,-24187.71
2023-06-29T01:13:02.980Z,-24186.38
2023-06-29T01:15:31.686Z,-24185.11
2023-06-29T01:18:00.035Z,-24183.52
2023-06-29T01:20:27.755Z,-24182.03
2023-06-29T01:23:06.357Z,-24180.63
2023-06-29T01:25:34.271Z,-24179.89
2023-06-29T01:28:06.831Z,-24179.79
2023-06-29T01:30:49.973Z,-24178.18
2023-06-29T01:33:20.015Z,-24176.38
2023-06-29T01:35:47.697Z,-24174.76
2023-06-29T01:38:39.016Z,-24173.62
2023-06-29T01:41:08.171Z,-24172.37
2023-06-29T01:43:35.752Z,-24170.79
2023-06-29T01:46:03.412Z,-24168.34
2023-06-29T01:48:30.902Z,-24166.50
2023-06-29T01:50:58.715Z,-24164.95
2023-06-29T01:53:26.246Z,-24164.05
2023-06-29T01:55:54.010Z,-24163.58
2023-06-29T01:58:21.481Z,-24162.68
2023-06-29T02:00:49.002Z,-24161.10
2023-06-29T02:03:16.617Z,-24159.92
2023-06-29T02:05:44.657Z,-24159.45
2023-06-29T02:08:12.370Z,-24158.92
2023-06-29T02:10:40.918Z,-24158.08
2023-06-29T02:13:08.390Z,-24157.06
2023-06-29T02:15:35.920Z,-24156.88
2023-06-29T02:18:06.884Z,-24156.81
2023-06-29T02:20:34.617Z,-24156.22
2023-06-29T02:23:02.112Z,-24155.76
2023-06-29T02:25:29.607Z,-24155.97
2023-06-29T02:27:57.059Z,-24156.50
2023-06-29T02:30:24.528Z,-24156.56
2023-06-29T02:32:52.139Z,-24156.31
2023-06-29T02:35:19.726Z,-24156.44
2023-06-29T02:37:47.334Z,-24156.57
2023-06-29T02:40:14.946Z,-24156.97
2023-06-29T02:42:43.409Z,-24157.46
2023-06-29T02:45:11.910Z,-24157.93
2023-06-29T02:47:39.772Z,-24158.14
2023-06-29T02:50:07.733Z,-24158.58
2023-06-29T02:52:43.494Z,-24158.95
2023-06-29T02:55:11.054Z,-24159.42
2023-06-29T02:57:38.751Z,-24160.04
2023-06-29T03:00:09.544Z,-24160.79
2023-06-29T03:02:37.198Z,-24161.32
2023-06-29T03:05:04.984Z,-24161.72
2023-06-29T03:07:33.822Z,-24161.75
2023-06-29T03:10:02.920Z,-24162.28
2023-06-29T03:12:30.826Z,-24163.15
2023-06-29T03:14:58.394Z,-24163.58
2023-06-29T03:17:25.966Z,-24163.99
2023-06-29T03:19:53.631Z,-24164.73
2023-06-29T03:22:21.134Z,-24164.95
2023-06-29T03:24:48.591Z,-24164.95
2023-06-29T03:27:16.032Z,-24165.08
2023-06-29T03:29:43.564Z,-24165.14
2023-06-29T03:32:10.993Z,-24165.42
2023-06-29T03:34:38.559Z,-24166.85
2023-06-29T03:37:06.199Z,-24167.75
2023-06-29T03:39:33.640Z,-24168.15
2023-06-29T03:42:01.118Z,-24168.40
2023-06-29T03:44:28.657Z,-24169.05
2023-06-29T03:46:56.178Z,-24169.36
2023-06-29T03:49:23.779Z,-24169.42
2023-06-29T03:51:51.327Z,-24169.80
2023-06-29T03:54:18.835Z,-24170.35
2023-06-29T03:56:46.316Z,-24171.19
2023-06-29T03:59:13.856Z,-24172.00
2023-06-29T04:01:41.376Z,-24172.43
2023-06-29T04:04:08.989Z,-24172.46
2023-06-29T04:06:36.539Z,-24172.74
2023-06-29T04:09:04.137Z,-24173.00
2023-06-29T04:11:31.594Z,-24173.30
2023-06-29T04:13:59.141Z,-24173.98
2023-06-29T04:16:26.889Z,-24174.89
2023-06-29T04:18:54.476Z,-24176.01
2023-06-29T04:21:22.017Z,-24177.09
2023-06-29T04:23:49.631Z,-24178.98
2023-06-29T04:26:17.595Z,-24180.85
2023-06-29T04:28:46.327Z,-24182.96
2023-06-29T04:31:14.151Z,-24184.73
2023-06-29T04:33:42.160Z,-24186.25
2023-06-29T04:36:14.022Z,-24187.55
2023-06-29T04:38:41.460Z,-24188.95
2023-06-29T04:41:11.627Z,-24189.42
2023-06-29T04:43:39.686Z,-24190.41
2023-06-29T04:46:07.317Z,-24191.34
2023-06-29T04:48:38.304Z,-24191.81
2023-06-29T04:51:06.790Z,-24192.15
2023-06-29T04:53:34.948Z,-24192.83
2023-06-29T04:56:05.388Z,-24193.36
2023-06-29T04:58:33.206Z,-24193.57
2023-06-29T05:01:00.730Z,-24193.82
2023-06-29T05:03:28.476Z,-24193.89
2023-06-29T05:05:56.057Z,-24194.17
2023-06-29T05:08:23.583Z,-24194.66
2023-06-29T05:10:51.568Z,-24194.82
2023-06-29T05:13:19.112Z,-24195.50
2023-06-29T05:15:49.117Z,-24196.15
2023-06-29T05:18:17.102Z,-24196.37
2023-06-29T05:20:44.651Z,-24196.52
2023-06-29T05:23:12.928Z,-24196.37
2023-06-29T05:25:42.269Z,-24195.75
2023-06-29T05:28:10.172Z,-24195.25
2023-06-29T05:30:37.667Z,-24194.97
2023-06-29T05:33:05.518Z,-24194.91
2023-06-29T05:35:34.564Z,-24195.06
2023-06-29T05:38:02.287Z,-24195.50
2023-06-29T05:40:30.475Z,-24196.74
2023-06-29T05:42:58.055Z,-24198.82
2023-06-29T05:45:25.644Z,-24201.55
2023-06-29T05:47:53.208Z,-24203.69
2023-06-29T05:50:21.842Z,-24205.52
2023-06-29T05:52:51.135Z,-24207.41
2023-06-29T05:55:20.730Z,-24208.93
2023-06-29T05:57:48.555Z,-24210.35
2023-06-29T06:00:16.899Z,-24211.69
2023-06-29T06:02:46.125Z,-24213.36
2023-06-29T06:05:14.185Z,-24214.20
2023-06-29T06:07:41.750Z,-24215.34
2023-06-29T06:10:09.669Z,-24216.89
2023-06-29T06:12:37.244Z,-24218.48
2023-06-29T06:15:07.264Z,-24219.50
2023-06-29T06:17:34.884Z,-24221.39
2023-06-29T06:20:02.575Z,-24222.94
2023-06-29T06:22:30.126Z,-24223.99
2023-06-29T06:24:57.687Z,-24224.93
2023-06-29T06:27:25.550Z,-24225.64
2023-06-29T06:29:54.004Z,-24226.13
2023-06-29T06:32:25.656Z,-24228.05
2023-06-29T06:34:53.158Z,-24231.96
2023-06-29T06:37:20.648Z,-24235.27
2023-06-29T06:39:48.144Z,-24237.90
2023-06-29T06:42:15.765Z,-24240.44
2023-06-29T06:44:51.837Z,-24243.75
2023-06-29T06:47:19.414Z,-24245.58
2023-06-29T06:49:47.671Z,-24245.36
2023-06-29T06:52:15.224Z,-24243.63
2023-06-29T06:54:42.930Z,-24240.69
2023-06-29T06:57:10.429Z,-24238.03
2023-06-29T06:59:37.948Z,-24236.79
2023-06-29T07:02:06.682Z,-24236.79
2023-06-29T07:04:34.511Z,-24239.42
2023-06-29T07:07:02.157Z,-24241.03
2023-06-29T07:09:29.799Z,-24241.71
2023-06-29T07:11:57.325Z,-24241.74
2023-06-29T07:14:24.871Z,-24241.43
2023-06-29T07:16:52.596Z,-24241.50
2023-06-29T07:24:21.292Z,-24245.95
2023-06-29T07:26:48.769Z,-24249.39
2023-06-29T07:29:16.408Z,-24252.18
2023-06-29T07:31:43.970Z,-24253.20
2023-06-29T07:34:11.428Z,-24253.32
2023-06-29T07:36:40.453Z,-24254.22
2023-06-29T07:39:08.357Z,-24254.56
2023-06-29T07:41:36.081Z,-24255.92
2023-06-29T07:44:03.741Z,-24258.86
2023-06-29T07:46:33.133Z,-24262.91
2023-06-29T07:49:00.792Z,-24264.43
2023-06-29T07:51:33.667Z,-24264.09
2023-06-29T07:54:02.264Z,-24263.28
2023-06-29T07:59:00.672Z,-24261.12
2023-06-29T08:01:28.279Z,-24260.66
2023-06-29T08:04:01.289Z,-24260.44
2023-06-29T08:09:04.577Z,-24264.24
2023-06-29T08:11:32.146Z,-24267.34
2023-06-29T08:13:59.685Z,-24268.85
2023-06-29T08:16:27.311Z,-24270.00
2023-06-29T08:18:54.893Z,-24272.07
2023-06-29T08:21:22.466Z,-24273.49
2023-06-29T08:23:51.931Z,-24275.65
2023-06-29T08:26:19.691Z,-24278.87
2023-06-29T08:28:47.322Z,-24281.50
2023-06-29T08:31:15.939Z,-24282.33
2023-06-29T08:33:44.233Z,-24281.50
2023-06-29T08:36:11.906Z,-24281.75
2023-06-29T08:38:39.372Z,-24281.10
2023-06-29T08:41:07.217Z,-24280.29
2023-06-29T08:43:34.775Z,-24280.04
2023-06-29T08:46:03.697Z,-24279.39
2023-06-29T08:48:32.201Z,-24279.39
2023-06-29T08:51:04.199Z,-24280.48
2023-06-29T08:53:32.008Z,-24280.70
2023-06-29T08:55:59.673Z,-24280.60
2023-06-29T08:58:27.322Z,-24280.66
2023-06-29T09:00:55.102Z,-24280.94
2023-06-29T09:03:23.742Z,-24280.97
2023-06-29T09:05:51.909Z,-24279.18
2023-06-29T09:08:20.600Z,-24276.12
2023-06-29T09:10:48.867Z,-24269.32
2023-06-29T09:13:16.524Z,-24259.45
2023-06-29T09:15:44.934Z,-24252.02
2023-06-29T09:18:12.871Z,-24248.80
2023-06-29T09:20:40.481Z,-24248.58
2023-06-29T09:23:08.006Z,-24250.23
2023-06-29T09:25:39.227Z,-24250.32
2023-06-29T09:28:07.675Z,-24249.05
2023-06-29T09:30:39.369Z,-24248.93
2023-06-29T09:33:11.808Z,-24250.26
2023-06-29T09:35:41.333Z,-24251.28
2023-06-29T09:38:08.950Z,-24252.46
2023-06-29T09:40:53.788Z,-24253.70
2023-06-29T09:43:29.396Z,-24249.86
2023-06-29T09:46:15.281Z,-24243.01
2023-06-29T09:51:26.358Z,-24231.89
2023-06-29T09:53:54.006Z,-24230.93
2023-06-29T09:56:21.541Z,-24230.90
2023-06-29T09:58:49.550Z,-24232.36
2023-06-29T10:01:17.948Z,-24235.30
2023-06-29T10:03:45.981Z,-24238.83
2023-06-29T10:06:19.399Z,-24243.72
2023-06-29T10:08:46.910Z,-24250.35
2023-06-29T10:11:14.589Z,-24255.33
2023-06-29T10:13:44.737Z,-24261.09
2023-06-29T10:16:12.434Z,-24267.24
2023-06-29T10:18:42.626Z,-24272.56
2023-06-29T10:21:10.336Z,-24276.49
2023-06-29T10:23:37.901Z,-24277.51
2023-06-29T10:26:05.447Z,-24277.91
2023-06-29T10:28:33.161Z,-24278.78
2023-06-29T10:31:01.341Z,-24281.38
2023-06-29T10:33:29.318Z,-24284.19
2023-06-29T10:36:02.756Z,-24286.91
2023-06-29T10:38:36.884Z,-24289.10
2023-06-29T10:41:07.991Z,-24291.55
2023-06-29T10:44:01.456Z,-24293.74
2023-06-29T10:46:43.464Z,-24296.24
2023-06-29T10:49:30.020Z,-24299.76
2023-06-29T10:52:04.916Z,-24301.64
2023-06-29T10:54:32.768Z,-24302.07
2023-06-29T10:57:02.007Z,-24303.10
2023-06-29T10:59:29.810Z,-24304.70
2023-06-29T11:01:57.371Z,-24306.21
2023-06-29T11:04:33.352Z,-24308.53
2023-06-29T11:07:10.140Z,-24309.80
2023-06-29T11:09:37.890Z,-24310.20
2023-06-29T11:12:05.725Z,-24311.31
2023-06-29T11:14:38.216Z,-24313.75
2023-06-29T11:17:09.487Z,-24316.40
2023-06-29T11:19:36.960Z,-24318.72
2023-06-29T11:22:04.988Z,-24320.54
2023-06-29T11:24:32.563Z,-24321.81
2023-06-29T11:27:00.060Z,-24323.72
2023-06-29T11:29:28.670Z,-24325.82
2023-06-29T11:31:56.173Z,-24328.75
2023-06-29T11:34:23.829Z,-24331.00
2023-06-29T11:37:09.046Z,-24331.03
2023-06-29T11:39:39.188Z,-24329.27
2023-06-29T11:42:10.341Z,-24327.27
2023-06-29T11:44:38.022Z,-24321.34
2023-06-29T11:47:25.550Z,-24307.88
2023-06-29T11:49:55.640Z,-24294.42
2023-06-29T11:52:23.626Z,-24284.04
2023-06-29T11:54:51.976Z,-24277.14
2023-06-29T11:57:19.657Z,-24273.98
2023-06-29T11:59:48.116Z,-24273.09
2023-06-29T12:02:19.115Z,-24273.92
2023-06-29T12:04:57.907Z,-24275.71
2023-06-29T12:07:45.901Z,-24277.17
2023-06-29T12:10:37.421Z,-24280.45
2023-06-29T12:13:05.136Z,-24284.01
2023-06-29T12:15:33.949Z,-24287.75
2023-06-29T12:18:15.887Z,-24291.21
2023-06-29T12:20:45.605Z,-24293.09
2023-06-29T12:23:16.411Z,-24294.14
2023-06-29T12:25:45.776Z,-24293.71
2023-06-29T12:28:14.141Z,-24290.24
2023-06-29T12:30:42.079Z,-24283.72
2023-06-29T12:33:11.145Z,-24277.42
2023-06-29T12:35:38.760Z,-24271.33
2023-06-29T12:38:06.980Z,-24266.56
2023-06-29T12:40:34.751Z,-24263.25
2023-06-29T12:43:02.517Z,-24261.58
2023-06-29T12:45:30.120Z,-24260.41
2023-06-29T12:47:57.762Z,-24260.10
2023-06-29T12:50:25.623Z,-24260.47
2023-06-29T12:52:53.270Z,-24261.77
2023-06-29T12:55:20.877Z,-24263.29
2023-06-29T12:57:48.590Z,-24265.17
2023-06-29T13:00:19.871Z,-24266.69
2023-06-29T13:02:48.692Z,-24268.11
2023-06-29T13:05:16.537Z,-24270.71
2023-06-29T13:07:44.583Z,-24273.37
2023-06-29T13:10:15.127Z,-24275.90
2023-06-29T13:12:43.002Z,-24279.36
2023-06-29T13:15:11.139Z,-24283.29
2023-06-29T13:17:38.772Z,-24287.10
2023-06-29T13:20:07.317Z,-24290.99
2023-06-29T13:22:35.530Z,-24294.57
2023-06-29T13:25:03.513Z,-24298.74
2023-06-29T13:27:31.201Z,-24302.36
2023-06-29T13:29:58.720Z,-24304.27
2023-06-29T13:32:26.568Z,-24305.69
2023-06-29T13:34:54.120Z,-24307.57
2023-06-29T13:37:23.610Z,-24309.08
2023-06-29T13:39:51.154Z,-24310.08
2023-06-29T13:42:18.729Z,-24310.73
2023-06-29T13:44:46.571Z,-24310.64
2023-06-29T13:47:20.850Z,-24311.07
2023-06-29T13:49:48.507Z,-24311.38
2023-06-29T13:52:16.080Z,-24312.15
2023-06-29T13:54:43.963Z,-24313.26
2023-06-29T13:57:11.804Z,-24315.08
2023-06-29T13:59:39.661Z,-24317.61
2023-06-29T14:02:08.059Z,-24320.67
2023-06-29T14:04:35.989Z,-24323.19
2023-06-29T14:07:03.711Z,-24324.55
2023-06-29T14:09:31.470Z,-24325.26
2023-06-29T14:11:59.267Z,-24325.91
2023-06-29T14:14:27.093Z,-24327.23
2023-06-29T14:16:54.674Z,-24329.24
2023-06-29T14:19:22.431Z,-24330.32
2023-06-29T14:21:49.903Z,-24330.57
2023-06-29T14:36:22.811Z,-24335.87
2023-06-29T14:38:51.922Z,-24335.96
2023-06-29T14:41:21.066Z,-24335.38
2023-06-29T14:43:48.672Z,-24335.99
2023-06-29T14:46:16.281Z,-24337.29
2023-06-29T14:48:44.163Z,-24337.57
2023-06-29T14:51:11.876Z,-24337.45
2023-06-29T14:53:39.447Z,-24337.48
2023-06-29T14:56:08.394Z,-24337.60
2023-06-29T14:58:36.481Z,-24338.46
2023-06-29T15:01:07.362Z,-24339.27
2023-06-29T15:03:34.937Z,-24339.39
2023-06-29T15:06:02.535Z,-24339.76
2023-06-29T15:08:30.275Z,-24339.45
2023-06-29T15:10:57.863Z,-24339.08
2023-06-29T15:13:25.523Z,-24338.89
2023-06-29T15:15:53.226Z,-24338.59
2023-06-29T15:18:20.845Z,-24338.28
2023-06-29T15:20:49.178Z,-24338.25
2023-06-29T15:23:16.844Z,-24338.41
2023-06-29T15:25:46.167Z,-24338.13
2023-06-29T15:28:14.153Z,-24337.79
2023-06-29T15:30:52.856Z,-24337.29
2023-06-29T15:33:21.621Z,-24336.46
2023-06-29T15:35:49.637Z,-24335.71
2023-06-29T15:38:19.028Z,-24335.13
2023-06-29T15:40:49.080Z,-24335.29
2023-06-29T15:43:16.659Z,-24335.50
2023-06-29T15:45:44.514Z,-24335.65
2023-06-29T15:48:12.495Z,-24335.71
2023-06-29T15:50:40.200Z,-24335.93
2023-06-29T15:53:08.046Z,-24336.46
2023-06-29T15:55:35.847Z,-24336.55
2023-06-29T15:58:03.617Z,-24336.89
2023-06-29T16:00:31.261Z,-24336.52
2023-06-29T16:02:59.008Z,-24335.56
2023-06-29T16:05:26.593Z,-24331.37
2023-06-29T16:07:54.264Z,-24325.88
2023-06-29T16:10:21.819Z,-24320.36
2023-06-29T16:12:49.511Z,-24315.30
2023-06-29T16:15:18.349Z,-24309.33
2023-06-29T16:17:45.992Z,-24304.05
2023-06-29T16:20:13.626Z,-24299.48
2023-06-29T16:22:41.343Z,-24296.73
2023-06-29T16:25:09.597Z,-24294.45
2023-06-29T16:27:37.154Z,-24293.34
2023-06-29T16:30:05.996Z,-24292.16
2023-06-29T16:32:33.646Z,-24291.42
2023-06-29T16:35:01.322Z,-24290.87
2023-06-29T16:37:28.923Z,-24290.93
2023-06-29T16:39:56.638Z,-24291.05
2023-06-29T16:42:24.125Z,-24291.36
2023-06-29T16:44:51.732Z,-24292.44
2023-06-29T16:47:19.338Z,-24293.58
2023-06-29T16:49:47.026Z,-24294.23
2023-06-29T16:52:16.006Z,-24290.68
2023-06-29T16:54:43.619Z,-24281.84
2023-06-29T16:57:11.215Z,-24273.40
2023-06-29T16:59:39.021Z,-24267.03
2023-06-29T17:02:06.754Z,-24261.80
2023-06-29T17:04:34.389Z,-24257.93
2023-06-29T17:07:02.103Z,-24255.55
2023-06-29T17:09:29.834Z,-24253.85
2023-06-29T17:11:57.395Z,-24253.11
2023-06-29T17:14:24.940Z,-24251.34
2023-06-29T17:16:54.298Z,-24248.52
2023-06-29T17:19:22.081Z,-24246.32
2023-06-29T17:21:49.545Z,-24244.12
2023-06-29T17:24:17.324Z,-24242.73
2023-06-29T17:26:44.920Z,-24241.68
2023-06-29T17:29:12.416Z,-24240.75
2023-06-29T17:31:39.956Z,-24239.76
2023-06-29T17:34:07.595Z,-24239.30
2023-06-29T17:36:35.871Z,-24238.98
2023-06-29T17:39:03.541Z,-24238.74
2023-06-29T17:41:31.194Z,-24238.49
2023-06-29T17:43:58.763Z,-24237.93
2023-06-29T17:46:26.430Z,-24237.38
2023-06-29T17:48:54.049Z,-24237.06
2023-06-29T17:51:22.267Z,-24237.25
2023-06-29T17:53:49.857Z,-24237.63
2023-06-29T17:57:21.080Z,-24238.37
2023-06-29T17:59:48.850Z,-24237.46
2023-06-29T18:02:16.959Z,-24237.47
2023-06-29T18:04:44.571Z,-24237.66
2023-06-29T18:07:12.482Z,-24237.69
2023-06-29T18:09:40.127Z,-24237.46
2023-06-29T18:12:08.074Z,-24237.40
2023-06-29T18:14:35.579Z,-24237.43
2023-06-29T18:17:04.741Z,-24237.16
2023-06-29T18:19:32.269Z,-24236.72
2023-06-29T18:21:59.895Z,-24236.42
2023-06-29T18:24:27.535Z,-24236.08
2023-06-29T18:26:55.382Z,-24235.80
2023-06-29T18:29:23.016Z,-24235.39
2023-06-29T18:31:50.685Z,-24235.49
2023-06-29T18:34:18.545Z,-24236.04
2023-06-29T18:36:46.293Z,-24236.45
2023-06-29T18:39:15.436Z,-24236.82
2023-06-29T18:41:43.558Z,-24237.06
2023-06-29T18:44:14.019Z,-24237.22
2023-06-29T18:46:43.648Z,-24237.81
2023-06-29T18:49:11.405Z,-24238.46
2023-06-29T18:51:38.969Z,-24239.05
2023-06-29T18:54:07.061Z,-24239.76
2023-06-29T18:56:34.688Z,-24240.57
2023-06-29T18:59:02.454Z,-24240.94
2023-06-29T19:01:30.338Z,-24241.19
2023-06-29T19:03:58.159Z,-24241.25
2023-06-29T19:06:26.252Z,-24240.85
2023-06-29T19:08:53.938Z,-24240.07
2023-06-29T19:11:21.682Z,-24239.30
2023-06-29T19:13:49.367Z,-24238.61
2023-06-29T19:16:17.247Z,-24238.34
2023-06-29T19:18:44.954Z,-24238.37
2023-06-29T19:21:14.558Z,-24238.55
2023-06-29T19:23:45.735Z,-24238.86
2023-06-29T19:26:14.510Z,-24239.11
2023-06-29T19:28:42.241Z,-24239.20
2023-06-29T19:31:09.765Z,-24239.33
2023-06-29T19:33:38.415Z,-24239.54
2023-06-29T19:36:06.133Z,-24239.79
2023-06-29T19:38:33.625Z,-24239.97
2023-06-29T19:41:03.379Z,-24240.16
2023-06-29T19:43:32.320Z,-24240.94
2023-06-29T19:48:53.017Z,-24243.14
2023-06-29T19:51:20.984Z,-24243.44
2023-06-29T19:53:48.616Z,-24244.00
2023-06-29T19:56:16.471Z,-24244.81
2023-06-29T19:58:44.284Z,-24245.36
2023-06-29T20:01:11.855Z,-24246.20
2023-06-29T20:03:39.636Z,-24247.13
2023-06-29T20:06:10.467Z,-24247.99
2023-06-29T20:08:38.581Z,-24248.86
2023-06-29T20:11:06.354Z,-24249.98
2023-06-29T20:13:48.223Z,-24251.47
2023-06-29T20:16:25.995Z,-24252.55
2023-06-29T20:18:53.841Z,-24253.20
2023-06-29T20:21:21.498Z,-24253.42
2023-06-29T20:23:51.999Z,-24253.35
2023-06-29T20:27:32.787Z,-24253.48
2023-06-29T20:30:00.457Z,-24252.30
2023-06-29T20:32:28.179Z,-24252.06
2023-06-29T20:34:55.755Z,-24251.96
2023-06-29T20:37:23.291Z,-24251.84
2023-06-29T20:39:50.745Z,-24251.71
2023-06-29T20:42:18.309Z,-24251.59
2023-06-29T20:44:49.518Z,-24251.28
2023-06-29T20:47:18.150Z,-24250.91
2023-06-29T20:49:45.677Z,-24250.72
2023-06-29T20:52:13.252Z,-24251.13
2023-06-29T20:54:40.758Z,-24251.46
2023-06-29T20:57:10.386Z,-24251.50
2023-06-29T20:59:37.914Z,-24251.65
2023-06-29T21:02:05.767Z,-24251.46
2023-06-29T21:04:33.713Z,-24251.34
2023-06-29T21:07:01.555Z,-24251.22
2023-06-29T21:09:29.180Z,-24251.34
2023-06-29T21:11:56.857Z,-24251.34
2023-06-29T21:14:24.596Z,-24250.94
2023-06-29T21:16:52.461Z,-24250.48
2023-06-29T21:19:20.228Z,-24249.64
2023-06-29T21:21:48.061Z,-24248.95
2023-06-29T21:24:15.765Z,-24248.62
2023-06-29T21:26:43.320Z,-24247.84
2023-06-29T21:29:27.700Z,-24247.16
2023-06-29T21:32:00.692Z,-24246.42
2023-06-29T21:34:28.331Z,-24245.21
2023-06-29T21:36:56.526Z,-24244.50
2023-06-29T21:39:24.139Z,-24243.57
2023-06-29T21:41:51.882Z,-24242.76
2023-06-29T21:44:19.407Z,-24242.18
2023-06-29T21:46:47.046Z,-24241.43
2023-06-29T21:49:15.266Z,-24240.56
2023-06-29T21:51:42.767Z,-24239.91
2023-06-29T21:54:11.048Z,-24239.57
2023-06-29T21:56:41.603Z,-24239.02
2023-06-29T21:59:09.303Z,-24238.74
2023-06-29T22:01:37.004Z,-24238.40
2023-06-29T22:04:04.878Z,-24237.78
2023-06-29T22:06:32.478Z,-24237.25
2023-06-29T22:09:04.358Z,-24236.45
2023-06-29T22:11:32.121Z,-24235.33
2023-06-29T22:13:59.616Z,-24234.53
2023-06-29T22:16:27.521Z,-24233.69
2023-06-29T22:18:56.057Z,-24232.51
2023-06-29T22:21:25.529Z,-24231.15
2023-06-29T22:23:53.479Z,-24230.13
2023-06-29T22:26:21.392Z,-24229.35
2023-06-29T22:28:49.212Z,-24228.46
2023-06-29T22:34:04.200Z,-24225.86
2023-06-29T22:36:31.847Z,-24223.90
2023-06-29T22:38:59.572Z,-24222.72
2023-06-29T22:41:27.277Z,-24221.33
2023-06-29T22:43:58.493Z,-24220.09
2023-06-29T22:46:28.969Z,-24218.79
2023-06-29T22:48:56.684Z,-24217.21
2023-06-29T22:51:25.415Z,-24216.12
2023-06-29T22:53:53.377Z,-24214.63
2023-06-29T22:56:22.164Z,-24213.08
2023-06-29T22:59:13.114Z,-24211.93
2023-06-29T23:01:40.812Z,-24211.00
2023-06-29T23:04:08.791Z,-24210.51
2023-06-29T23:06:42.351Z,-24210.17
2023-06-29T23:09:10.044Z,-24209.86
2023-06-29T23:11:37.950Z,-24209.33
2023-06-29T23:14:06.044Z,-24208.65
2023-06-29T23:16:33.847Z,-24208.03
2023-06-29T23:19:01.756Z,-24207.84
2023-06-29T23:21:29.355Z,-24207.28
2023-06-29T23:23:57.067Z,-24206.48
2023-06-29T23:26:24.579Z,-24205.58
2023-06-29T23:28:52.795Z,-24205.39
2023-06-29T23:31:21.861Z,-24204.96
2023-06-29T23:33:49.851Z,-24204.21
2023-06-29T23:39:05.553Z,-24203.78
2023-06-29T23:41:34.905Z,-24202.48
2023-06-29T23:44:09.392Z,-24202.04
2023-06-29T23:46:48.583Z,-24201.52
2023-06-29T23:49:19.448Z,-24201.30
2023-06-29T23:51:48.616Z,-24200.99
2023-06-29T23:54:16.587Z,-24200.40
2023-06-29T23:56:46.143Z,-24200.43
2023-06-29T23:59:13.847Z,-24200.83
